createdAt,value
2022-08-08T00:01:07.862Z,39.35
2022-08-08T00:04:16.358Z,38.85
2022-08-08T00:07:13.662Z,39.36
2022-08-08T00:10:28.551Z,39.30
2022-08-08T00:14:17.331Z,39.39
2022-08-08T00:16:39.223Z,39.37
2022-08-08T00:19:34.067Z,39.60
2022-08-08T00:22:49.261Z,39.40
2022-08-08T00:25:44.763Z,39.32
2022-08-08T00:28:44.276Z,39.42
2022-08-08T00:32:20.362Z,39.65
2022-08-08T00:35:15.378Z,40.34
2022-08-08T00:38:44.388Z,40.24
2022-08-08T00:42:08.934Z,40.86
2022-08-08T00:45:27.059Z,40.40
2022-08-08T00:48:33.889Z,40.36
2022-08-08T00:51:51.048Z,40.59
2022-08-08T00:55:08.855Z,40.53
2022-08-08T00:58:18.559Z,40.81
2022-08-08T01:01:29.479Z,40.21
2022-08-08T01:05:01.699Z,40.25
2022-08-08T01:07:56.895Z,40.03
2022-08-08T01:11:16.093Z,40.75
2022-08-08T01:14:53.623Z,40.62
2022-08-08T01:18:04.205Z,40.74
2022-08-08T01:21:02.963Z,40.08
2022-08-08T01:24:17.263Z,40.66
2022-08-08T01:27:21.336Z,40.35
2022-08-08T01:30:27.974Z,40.43
2022-08-08T01:34:00.322Z,40.35
2022-08-08T01:37:17.416Z,40.40
2022-08-08T01:40:28.114Z,40.24
2022-08-08T01:43:58.039Z,40.37
2022-08-08T01:48:16.766Z,41.39
2022-08-08T01:51:29.754Z,40.58
2022-08-08T01:55:26.172Z,40.42
2022-08-08T01:58:11.229Z,40.39
2022-08-08T02:01:05.136Z,40.51
2022-08-08T02:04:17.484Z,40.92
2022-08-08T02:07:20.260Z,40.56
2022-08-08T02:10:12.010Z,41.04
2022-08-08T02:13:05.773Z,40.39
2022-08-08T02:16:03.072Z,40.49
2022-08-08T02:19:26.625Z,40.40
2022-08-08T02:22:34.010Z,40.63
2022-08-08T02:26:16.650Z,40.93
2022-08-08T02:29:35.831Z,40.91
2022-08-08T02:33:06.278Z,41.23
2022-08-08T02:36:05.272Z,40.58
2022-08-08T02:39:41.008Z,40.78
2022-08-08T02:44:42.553Z,41.32
2022-08-08T02:46:28.068Z,41.24
2022-08-08T02:49:51.988Z,41.65
2022-08-08T02:53:12.520Z,40.97
2022-08-08T02:56:30.867Z,41.16
2022-08-08T02:59:25.866Z,41.17
2022-08-08T03:02:36.848Z,40.81
2022-08-08T03:05:46.235Z,41.39
2022-08-08T03:08:59.381Z,41.33
2022-08-08T03:12:36.638Z,41.83
2022-08-08T03:16:00.660Z,41.00
2022-08-08T03:19:35.108Z,41.62
2022-08-08T03:22:56.173Z,42.36
2022-08-08T03:25:51.897Z,41.32
2022-08-08T03:28:51.688Z,41.94
2022-08-08T03:32:15.618Z,42.44
2022-08-08T03:35:09.452Z,41.41
2022-08-08T03:38:54.845Z,41.47
2022-08-08T03:42:12.390Z,41.37
2022-08-08T03:44:38.368Z,41.76
2022-08-08T03:47:27.805Z,41.45
2022-08-08T03:50:30.432Z,41.61
2022-08-08T03:53:37.897Z,41.74
2022-08-08T03:56:33.276Z,41.51
2022-08-08T03:59:29.654Z,41.57
2022-08-08T04:02:33.047Z,41.51
2022-08-08T04:05:35.275Z,41.75
2022-08-08T04:08:35.973Z,41.78
2022-08-08T04:11:59.096Z,41.73
2022-08-08T04:15:00.758Z,41.80
2022-08-08T04:17:58.896Z,41.79
2022-08-08T04:20:47.639Z,41.67
2022-08-08T04:24:12.184Z,41.82
2022-08-08T04:26:58.219Z,41.74
2022-08-08T04:29:55.367Z,42.04
2022-08-08T04:32:49.963Z,42.13
2022-08-08T04:35:40.516Z,41.97
2022-08-08T04:38:42.781Z,41.80
2022-08-08T04:41:35.769Z,42.11
2022-08-08T04:44:26.930Z,42.08
2022-08-08T04:47:13.876Z,41.90
2022-08-08T04:50:04.510Z,41.87
2022-08-08T04:53:05.241Z,42.06
2022-08-08T04:56:02.352Z,42.11
2022-08-08T04:58:52.185Z,41.92
2022-08-08T05:01:48.762Z,41.96
2022-08-08T05:04:37.455Z,41.94
2022-08-08T05:07:24.628Z,41.92
2022-08-08T05:10:12.282Z,42.03
2022-08-08T05:13:02.011Z,41.94
2022-08-08T05:16:52.271Z,42.44
2022-08-08T05:18:57.967Z,42.27
2022-08-08T05:21:59.974Z,42.08
2022-08-08T05:24:56.295Z,42.23
2022-08-08T05:27:44.458Z,42.12
2022-08-08T05:30:33.481Z,42.29
2022-08-08T05:33:21.053Z,42.39
2022-08-08T05:36:10.097Z,42.19
2022-08-08T05:39:14.553Z,42.55
2022-08-08T05:42:01.053Z,42.21
2022-08-08T05:44:51.779Z,42.44
2022-08-08T05:47:41.687Z,42.31
2022-08-08T05:50:47.797Z,42.60
2022-08-08T05:54:25.469Z,42.40
2022-08-08T05:56:57.488Z,42.18
2022-08-08T06:00:19.850Z,42.53
2022-08-08T06:03:25.435Z,42.70
2022-08-08T06:06:23.394Z,42.38
2022-08-08T06:10:00.004Z,42.46
2022-08-08T06:12:34.106Z,42.25
2022-08-08T06:20:37.155Z,41.88
2022-08-08T06:23:52.618Z,42.14
2022-08-08T06:26:45.295Z,42.38
2022-08-08T06:29:59.217Z,42.61
2022-08-08T06:32:56.410Z,42.81
2022-08-08T06:36:09.196Z,42.88
2022-08-08T06:38:56.411Z,42.86
2022-08-08T06:41:53.287Z,43.10
2022-08-08T06:44:42.556Z,43.05
2022-08-08T06:47:33.431Z,43.29
2022-08-08T06:50:31.778Z,43.37
2022-08-08T06:53:22.378Z,43.22
2022-08-08T06:56:16.662Z,43.29
2022-08-08T06:59:09.857Z,43.25
2022-08-08T07:02:26.338Z,43.21
2022-08-08T07:05:20.385Z,43.35
2022-08-08T07:08:18.407Z,43.31
2022-08-08T07:11:09.766Z,43.38
2022-08-08T07:14:16.182Z,43.25
2022-08-08T07:17:09.177Z,42.90
2022-08-08T07:20:11.201Z,43.06
2022-08-08T07:24:01.726Z,43.48
2022-08-08T07:27:00.510Z,43.13
2022-08-08T07:29:59.563Z,43.43
2022-08-08T07:32:54.744Z,43.15
2022-08-08T07:35:48.593Z,43.01
2022-08-08T07:38:38.196Z,43.27
2022-08-08T07:41:29.391Z,42.98
2022-08-08T07:44:43.509Z,43.03
2022-08-08T07:47:38.333Z,42.92
2022-08-08T07:50:26.645Z,42.99
2022-08-08T07:54:01.519Z,42.62
2022-08-08T07:57:36.985Z,42.31
2022-08-08T08:00:44.012Z,42.64
2022-08-08T08:03:47.480Z,42.32
2022-08-08T08:06:38.642Z,42.23
2022-08-08T08:09:48.420Z,41.86
2022-08-08T08:12:43.331Z,42.20
2022-08-08T08:15:33.782Z,41.86
2022-08-08T08:18:31.769Z,41.73
2022-08-08T08:21:19.692Z,41.95
2022-08-08T08:24:07.262Z,41.65
2022-08-08T08:26:57.417Z,41.36
2022-08-08T08:29:43.517Z,41.14
2022-08-08T08:32:36.263Z,40.67
2022-08-08T08:35:29.734Z,40.22
2022-08-08T08:38:35.351Z,39.88
2022-08-08T08:41:31.003Z,39.44
2022-08-08T08:44:17.620Z,38.93
2022-08-08T08:47:06.646Z,38.78
2022-08-08T08:49:54.526Z,37.89
2022-08-08T08:52:57.431Z,37.26
2022-08-08T08:55:49.512Z,36.99
2022-08-08T08:58:42.238Z,36.07
2022-08-08T09:01:36.943Z,36.29
2022-08-08T09:04:57.320Z,36.29
2022-08-08T09:08:12.389Z,35.83
2022-08-08T09:11:04.455Z,35.24
2022-08-08T09:13:51.477Z,34.87
2022-08-08T09:16:40.658Z,34.53
2022-08-08T09:21:56.802Z,33.78
2022-08-08T09:22:47.668Z,33.61
2022-08-08T09:25:54.541Z,33.60
2022-08-08T09:28:44.771Z,33.53
2022-08-08T09:31:57.607Z,33.17
2022-08-08T09:35:05.227Z,33.44
2022-08-08T09:38:01.132Z,32.89
2022-08-08T09:40:57.733Z,32.93
2022-08-08T09:44:06.342Z,32.26
2022-08-08T09:47:05.075Z,32.06
2022-08-08T09:49:51.732Z,32.19
2022-08-08T09:52:56.648Z,31.55
2022-08-08T09:56:04.216Z,31.45
2022-08-08T09:59:50.422Z,31.04
2022-08-08T10:02:34.766Z,30.44
2022-08-08T10:05:26.063Z,30.32
2022-08-08T10:08:12.309Z,30.35
2022-08-08T10:11:00.009Z,30.15
2022-08-08T10:13:57.397Z,30.04
2022-08-08T10:16:44.017Z,29.80
2022-08-08T10:19:57.363Z,29.34
2022-08-08T10:23:06.326Z,28.78
2022-08-08T10:26:00.195Z,28.81
2022-08-08T10:28:58.415Z,28.16
2022-08-08T10:32:11.251Z,28.90
2022-08-08T10:35:01.350Z,28.47
2022-08-08T10:37:59.135Z,27.77
2022-08-08T10:40:51.940Z,27.87
2022-08-08T10:43:40.457Z,27.86
2022-08-08T10:46:31.817Z,27.97
2022-08-08T10:50:00.403Z,27.58
2022-08-08T10:52:31.115Z,27.36
2022-08-08T10:55:41.378Z,27.14
2022-08-08T10:58:28.410Z,26.96
2022-08-08T11:01:15.831Z,27.06
2022-08-08T11:04:04.425Z,26.64
2022-08-08T11:07:02.383Z,26.25
2022-08-08T11:09:48.679Z,26.52
2022-08-08T11:12:44.238Z,26.51
2022-08-08T11:15:34.429Z,26.41
2022-08-08T11:18:39.886Z,26.49
2022-08-08T11:21:34.869Z,26.13
2022-08-08T11:24:21.178Z,25.99
2022-08-08T11:27:19.384Z,25.96
2022-08-08T11:30:20.171Z,25.46
2022-08-08T11:33:12.464Z,25.23
2022-08-08T11:35:58.813Z,25.41
2022-08-08T11:38:54.250Z,24.96
2022-08-08T11:41:43.245Z,25.12
2022-08-08T11:44:29.405Z,24.74
2022-08-08T11:47:17.164Z,24.61
2022-08-08T11:50:09.934Z,24.22
2022-08-08T11:52:58.466Z,24.75
2022-08-08T11:55:50.116Z,25.07
2022-08-08T11:58:36.185Z,25.10
2022-08-08T12:01:32.702Z,24.95
2022-08-08T12:04:24.835Z,24.48
2022-08-08T12:07:17.213Z,24.63
2022-08-08T12:10:15.833Z,24.68
2022-08-08T12:13:09.429Z,24.48
2022-08-08T12:16:08.454Z,24.98
2022-08-08T12:18:56.296Z,24.86
2022-08-08T12:22:00.086Z,24.65
2022-08-08T12:24:51.485Z,24.76
2022-08-08T12:27:49.081Z,24.79
2022-08-08T12:30:36.108Z,24.71
2022-08-08T12:33:37.051Z,24.56
2022-08-08T12:36:24.250Z,24.48
2022-08-08T12:40:01.043Z,24.20
2022-08-08T12:42:48.223Z,24.21
2022-08-08T12:46:00.097Z,24.04
2022-08-08T12:49:20.726Z,23.66
2022-08-08T12:52:01.493Z,23.93
2022-08-08T12:54:47.667Z,23.70
2022-08-08T12:57:49.933Z,23.48
2022-08-08T13:00:43.763Z,23.16
2022-08-08T13:03:34.213Z,22.98
2022-08-08T13:06:20.853Z,22.57
2022-08-08T13:09:10.552Z,22.35
2022-08-08T13:12:34.209Z,22.01
2022-08-08T13:15:06.677Z,21.48
2022-08-08T13:18:08.672Z,21.70
2022-08-08T13:20:58.299Z,21.45
2022-08-08T13:23:46.534Z,21.32
2022-08-08T13:26:33.694Z,21.05
2022-08-08T13:29:21.031Z,20.66
2022-08-08T13:32:07.763Z,20.43
2022-08-08T13:34:58.867Z,19.57
2022-08-08T13:38:05.101Z,19.53
2022-08-08T13:40:52.505Z,19.38
2022-08-08T13:43:38.674Z,19.06
2022-08-08T13:46:26.300Z,18.96
2022-08-08T13:50:37.316Z,18.89
2022-08-08T13:52:37.997Z,18.61
2022-08-08T13:55:29.266Z,17.65
2022-08-08T13:58:22.446Z,16.73
2022-08-08T14:01:19.134Z,16.00
2022-08-08T14:04:21.331Z,15.22
2022-08-08T14:07:09.165Z,15.01
2022-08-08T14:10:10.092Z,14.47
2022-08-08T14:12:58.359Z,13.83
2022-08-08T14:15:50.649Z,13.83
2022-08-08T14:18:51.886Z,14.46
2022-08-08T14:21:48.937Z,15.03
2022-08-08T14:24:38.397Z,14.71
2022-08-08T14:27:40.520Z,12.88
2022-08-08T14:30:34.401Z,14.14
2022-08-08T14:33:34.238Z,14.09
2022-08-08T14:36:33.546Z,13.05
2022-08-08T14:39:24.846Z,14.23
2022-08-08T14:42:11.115Z,14.00
2022-08-08T14:45:00.264Z,13.77
2022-08-08T14:48:00.590Z,12.55
2022-08-08T14:50:47.291Z,12.60
2022-08-08T14:53:55.143Z,12.32
2022-08-08T14:56:42.692Z,11.98
2022-08-08T14:59:43.630Z,11.80
2022-08-08T15:02:31.450Z,11.73
2022-08-08T15:05:19.249Z,11.72
2022-08-08T15:08:12.589Z,10.99
2022-08-08T15:11:11.385Z,11.25
2022-08-08T15:14:01.743Z,11.16
2022-08-08T15:16:49.114Z,11.92
2022-08-08T15:19:35.603Z,12.12
2022-08-08T15:22:23.365Z,13.27
2022-08-08T15:25:17.801Z,13.58
2022-08-08T15:28:33.291Z,14.02
2022-08-08T15:31:55.527Z,14.55
2022-08-08T15:34:31.405Z,14.37
2022-08-08T15:37:19.151Z,14.10
2022-08-08T15:40:06.614Z,13.81
2022-08-08T15:42:57.933Z,13.62
2022-08-08T15:45:45.822Z,13.95
2022-08-08T15:48:36.280Z,13.87
2022-08-08T15:51:22.909Z,14.14
2022-08-08T15:54:37.314Z,14.72
2022-08-08T15:57:23.005Z,15.06
2022-08-08T16:00:27.555Z,15.42
2022-08-08T16:03:14.168Z,15.80
2022-08-08T16:06:03.535Z,16.10
2022-08-08T16:12:59.985Z,16.44
2022-08-08T16:13:02.192Z,16.75
2022-08-08T16:15:09.325Z,17.39
2022-08-08T16:18:11.185Z,17.45
2022-08-08T16:21:01.140Z,17.80
2022-08-08T16:23:46.995Z,18.21
2022-08-08T16:26:36.916Z,18.38
2022-08-08T16:29:36.980Z,18.64
2022-08-08T16:32:32.223Z,19.15
2022-08-08T16:35:18.929Z,19.67
2022-08-08T16:38:16.237Z,19.23
2022-08-08T16:41:18.406Z,21.27
2022-08-08T16:44:09.650Z,20.07
2022-08-08T16:47:39.855Z,20.79
2022-08-08T16:50:31.702Z,20.88
2022-08-08T16:55:23.175Z,20.98
2022-08-08T16:56:27.270Z,21.35
2022-08-08T16:59:13.019Z,21.74
2022-08-08T17:01:58.775Z,22.17
2022-08-08T17:04:46.086Z,22.57
2022-08-08T17:07:32.070Z,22.58
2022-08-08T17:10:19.371Z,22.45
2022-08-08T17:13:06.609Z,22.75
2022-08-08T17:15:53.576Z,23.10
2022-08-08T17:18:39.509Z,23.55
2022-08-08T17:21:26.370Z,23.34
2022-08-08T17:24:26.815Z,23.88
2022-08-08T17:27:14.513Z,24.08
2022-08-08T17:30:08.284Z,24.10
2022-08-08T17:34:37.214Z,24.36
2022-08-08T17:36:12.447Z,24.38
2022-08-08T17:39:45.872Z,24.68
2022-08-08T17:42:19.584Z,24.88
2022-08-08T17:45:06.713Z,24.93
2022-08-08T17:48:03.771Z,25.18
2022-08-08T17:50:49.714Z,25.26
2022-08-08T17:53:43.723Z,25.57
2022-08-08T17:56:32.102Z,25.55
2022-08-08T17:59:19.321Z,25.80
2022-08-08T18:02:11.394Z,25.89
2022-08-08T18:05:05.247Z,26.03
2022-08-08T18:08:03.093Z,26.18
2022-08-08T18:10:53.982Z,26.36
2022-08-08T18:13:42.048Z,26.68
2022-08-08T18:16:31.223Z,26.69
2022-08-08T18:19:22.980Z,27.13
2022-08-08T18:22:37.476Z,26.86
2022-08-08T18:25:16.541Z,27.13
2022-08-08T18:28:02.599Z,27.48
2022-08-08T18:30:49.044Z,27.33
2022-08-08T18:34:10.616Z,27.59
2022-08-08T18:36:40.617Z,27.79
2022-08-08T18:39:30.911Z,28.10
2022-08-08T18:42:18.550Z,27.88
2022-08-08T18:45:09.347Z,27.98
2022-08-08T18:48:14.163Z,28.31
2022-08-08T18:51:07.381Z,28.30
2022-08-08T18:54:13.755Z,28.57
2022-08-08T18:57:11.045Z,28.72
2022-08-08T19:00:00.656Z,28.72
2022-08-08T19:02:55.318Z,28.67
2022-08-08T19:05:45.089Z,29.10
2022-08-08T19:08:32.864Z,29.13
2022-08-08T19:11:22.592Z,29.09
2022-08-08T19:14:08.807Z,29.29
2022-08-08T19:16:58.465Z,29.32
2022-08-08T19:20:02.300Z,29.47
2022-08-08T19:22:49.392Z,29.48
2022-08-08T19:26:20.060Z,29.48
2022-08-08T19:28:42.204Z,29.58
2022-08-08T19:31:31.464Z,29.75
2022-08-08T19:34:30.260Z,29.72
2022-08-08T19:37:43.322Z,29.95
2022-08-08T19:41:02.099Z,30.05
2022-08-08T19:44:26.708Z,30.30
2022-08-08T19:47:34.300Z,30.56
2022-08-08T19:50:20.275Z,30.18
2022-08-08T19:53:21.930Z,30.08
2022-08-08T19:56:40.622Z,30.24
2022-08-08T19:59:46.552Z,30.71
2022-08-08T20:02:35.395Z,30.58
2022-08-08T20:06:14.743Z,30.85
2022-08-08T20:08:32.080Z,30.74
2022-08-08T20:11:21.807Z,30.81
2022-08-08T20:14:12.410Z,31.03
2022-08-08T20:17:28.044Z,31.05
2022-08-08T20:20:20.482Z,31.13
2022-08-08T20:23:12.505Z,30.77
2022-08-08T20:26:03.225Z,31.25
2022-08-08T20:28:50.873Z,31.40
2022-08-08T20:32:02.546Z,31.48
2022-08-08T20:34:47.931Z,31.45
2022-08-08T20:37:53.242Z,31.58
2022-08-08T20:40:41.962Z,31.78
2022-08-08T20:43:43.501Z,31.58
2022-08-08T20:46:35.180Z,31.92
2022-08-08T20:49:23.962Z,32.06
2022-08-08T20:52:18.912Z,32.09
2022-08-08T20:55:07.675Z,32.16
2022-08-08T20:58:03.025Z,32.49
2022-08-08T21:00:49.143Z,32.46
2022-08-08T21:03:55.675Z,32.41
2022-08-08T21:06:52.871Z,32.55
2022-08-08T21:09:48.448Z,32.58
2022-08-08T21:12:52.878Z,32.64
2022-08-08T21:16:05.910Z,32.72
2022-08-08T21:18:47.788Z,32.73
2022-08-08T21:21:41.082Z,33.01
2022-08-08T21:24:30.325Z,33.09
2022-08-08T21:28:05.427Z,33.14
2022-08-08T21:30:24.543Z,33.00
2022-08-08T21:33:11.590Z,33.03
2022-08-08T21:36:17.732Z,33.25
2022-08-08T21:39:04.706Z,33.43
2022-08-08T21:41:59.340Z,33.43
2022-08-08T21:44:58.049Z,33.70
2022-08-08T21:48:00.706Z,33.73
2022-08-08T21:50:50.527Z,33.74
2022-08-08T21:54:33.128Z,33.82
2022-08-08T21:56:46.336Z,33.56
2022-08-08T22:00:01.541Z,33.78
2022-08-08T22:02:39.363Z,33.95
2022-08-08T22:05:27.061Z,33.73
2022-08-08T22:08:16.032Z,34.01
2022-08-08T22:11:51.367Z,33.96
2022-08-08T22:14:16.113Z,34.01
2022-08-08T22:17:01.930Z,33.89
2022-08-08T22:20:11.108Z,34.15
2022-08-08T22:22:54.047Z,34.18
2022-08-08T22:26:20.039Z,34.17
2022-08-08T22:29:15.002Z,34.56
2022-08-08T22:31:58.223Z,34.52
2022-08-08T22:34:51.006Z,34.68
2022-08-08T22:37:53.319Z,34.34
2022-08-08T22:40:41.051Z,34.53
2022-08-08T22:43:27.457Z,34.55
2022-08-08T22:46:18.426Z,34.59
2022-08-08T22:49:04.172Z,34.60
2022-08-08T22:51:54.081Z,34.50
2022-08-08T22:54:56.199Z,34.43
2022-08-08T22:57:49.483Z,34.83
2022-08-08T23:00:36.570Z,34.73
2022-08-08T23:03:25.181Z,34.93
2022-08-08T23:06:31.457Z,34.80
2022-08-08T23:09:19.034Z,34.83
2022-08-08T23:12:39.447Z,34.72
2022-08-08T23:16:40.949Z,35.11
2022-08-08T23:18:31.827Z,34.76
2022-08-08T23:21:17.478Z,34.80
2022-08-08T23:24:07.331Z,34.81
2022-08-08T23:26:55.996Z,34.69
2022-08-08T23:29:42.546Z,35.03
2022-08-08T23:32:44.212Z,35.00
2022-08-08T23:35:34.473Z,34.87
2022-08-08T23:38:43.952Z,35.28
2022-08-08T23:41:30.924Z,34.88
2022-08-08T23:44:35.100Z,34.94
2022-08-08T23:49:04.475Z,35.24
2022-08-08T23:50:31.356Z,34.98
2022-08-08T23:53:17.304Z,35.28
2022-08-08T23:56:32.298Z,35.05
2022-08-08T23:59:21.454Z,35.25
